sensor_id;sensor_type;location;lat;lon;timestamp;pressure;altitude;pressure_sealevel;temperature
76657;BMP280;65576;47.714;9.414;2022-12-07T00:01:22;96647.47;;;5.20
76657;BMP280;65576;47.714;9.414;2022-12-07T00:03:49;96648.31;;;5.13
76657;BMP280;65576;47.714;9.414;2022-12-07T00:06:16;96650.09;;;5.16
76657;BMP280;65576;47.714;9.414;2022-12-07T00:08:42;96649.34;;;5.19
76657;BMP280;65576;47.714;9.414;2022-12-07T00:11:10;96647.16;;;5.18
76657;BMP280;65576;47.714;9.414;2022-12-07T00:13:37;96648.53;;;5.22
76657;BMP280;65576;47.714;9.414;2022-12-07T00:16:14;96648.53;;;5.22
76657;BMP280;65576;47.714;9.414;2022-12-07T00:18:40;96646.41;;;5.17
76657;BMP280;65576;47.714;9.414;2022-12-07T00:21:11;96640.81;;;5.26
76657;BMP280;65576;47.714;9.414;2022-12-07T00:23:37;96639.72;;;5.23
76657;BMP280;65576;47.714;9.414;2022-12-07T00:26:07;96640.69;;;5.06
76657;BMP280;65576;47.714;9.414;2022-12-07T00:28:33;96641.75;;;5.09
76657;BMP280;65576;47.714;9.414;2022-12-07T00:31:03;96647.94;;;5.15
76657;BMP280;65576;47.714;9.414;2022-12-07T00:33:28;96637.09;;;5.30
76657;BMP280;65576;47.714;9.414;2022-12-07T00:35:58;96634.59;;;5.23
76657;BMP280;65576;47.714;9.414;2022-12-07T00:38:24;96640.09;;;5.22
76657;BMP280;65576;47.714;9.414;2022-12-07T00:40:57;96635.31;;;5.24
76657;BMP280;65576;47.714;9.414;2022-12-07T00:43:23;96634.91;;;5.29
76657;BMP280;65576;47.714;9.414;2022-12-07T00:45:48;96638.19;;;5.29
76657;BMP280;65576;47.714;9.414;2022-12-07T00:48:13;96642.63;;;5.25
76657;BMP280;65576;47.714;9.414;2022-12-07T00:50:39;96641.47;;;5.30
76657;BMP280;65576;47.714;9.414;2022-12-07T00:53:04;96647.47;;;5.20
76657;BMP280;65576;47.714;9.414;2022-12-07T00:55:33;96645.03;;;5.09
76657;BMP280;65576;47.714;9.414;2022-12-07T00:57:58;96645.91;;;5.29
76657;BMP280;65576;47.714;9.414;2022-12-07T01:00:23;96652.28;;;5.18
76657;BMP280;65576;47.714;9.414;2022-12-07T01:02:49;96646.03;;;5.19
76657;BMP280;65576;47.714;9.414;2022-12-07T01:05:14;96647.09;;;5.21
76657;BMP280;65576;47.714;9.414;2022-12-07T01:07:39;96650.53;;;5.11
76657;BMP280;65576;47.714;9.414;2022-12-07T01:10:05;96647.16;;;5.18
76657;BMP280;65576;47.714;9.414;2022-12-07T01:12:31;96648.34;;;5.10
76657;BMP280;65576;47.714;9.414;2022-12-07T01:14:56;96651.63;;;5.10
76657;BMP280;65576;47.714;9.414;2022-12-07T01:17:21;96650.22;;;5.06
76657;BMP280;65576;47.714;9.414;2022-12-07T01:19:46;96647.00;;;5.02
76657;BMP280;65576;47.714;9.414;2022-12-07T01:22:12;96653.88;;;5.05
76657;BMP280;65576;47.714;9.414;2022-12-07T01:24:37;96650.19;;;5.09
76657;BMP280;65576;47.714;9.414;2022-12-07T01:27:02;96655.06;;;5.00
76657;BMP280;65576;47.714;9.414;2022-12-07T01:29:27;96651.81;;;4.96
76657;BMP280;65576;47.714;9.414;2022-12-07T01:31:53;96654.72;;;4.98
76657;BMP280;65576;47.714;9.414;2022-12-07T01:34:18;96653.28;;;4.97
76657;BMP280;65576;47.714;9.414;2022-12-07T01:36:43;96655.84;;;4.97
76657;BMP280;65576;47.714;9.414;2022-12-07T01:39:09;96643.75;;;4.94
76657;BMP280;65576;47.714;9.414;2022-12-07T01:41:38;96656.94;;;4.96
76657;BMP280;65576;47.714;9.414;2022-12-07T01:46:43;96655.13;;;4.93
76657;BMP280;65576;47.714;9.414;2022-12-07T01:49:13;96647.63;;;5.06
76657;BMP280;65576;47.714;9.414;2022-12-07T01:51:40;96651.03;;;4.99
76657;BMP280;65576;47.714;9.414;2022-12-07T01:54:07;96642.16;;;5.04
76657;BMP280;65576;47.714;9.414;2022-12-07T01:56:33;96649.25;;;4.93
76657;BMP280;65576;47.714;9.414;2022-12-07T01:58:59;96642.31;;;4.93
76657;BMP280;65576;47.714;9.414;2022-12-07T02:01:25;96638.56;;;5.01
76657;BMP280;65576;47.714;9.414;2022-12-07T02:03:51;96641.50;;;5.00
76657;BMP280;65576;47.714;9.414;2022-12-07T02:06:20;96640.28;;;5.08
76657;BMP280;65576;47.714;9.414;2022-12-07T02:08:47;96645.13;;;5.02
76657;BMP280;65576;47.714;9.414;2022-12-07T02:11:12;96646.16;;;5.08
76657;BMP280;65576;47.714;9.414;2022-12-07T02:13:40;96647.28;;;5.04
76657;BMP280;65576;47.714;9.414;2022-12-07T02:16:31;96641.88;;;5.02
76657;BMP280;65576;47.714;9.414;2022-12-07T02:19:57;96650.78;;;4.90
76657;BMP280;65576;47.714;9.414;2022-12-07T02:22:47;96641.09;;;4.71
76657;BMP280;65576;47.714;9.414;2022-12-07T02:28:26;96636.94;;;4.84
76657;BMP280;65576;47.714;9.414;2022-12-07T02:30:55;96629.44;;;4.97
76657;BMP280;65576;47.714;9.414;2022-12-07T02:33:32;96627.72;;;4.87
76657;BMP280;65576;47.714;9.414;2022-12-07T02:36:12;96623.94;;;4.98
76657;BMP280;65576;47.714;9.414;2022-12-07T02:38:45;96623.56;;;4.96
76657;BMP280;65576;47.714;9.414;2022-12-07T02:41:17;96629.09;;;4.95
76657;BMP280;65576;47.714;9.414;2022-12-07T02:43:47;96620.25;;;4.99
76657;BMP280;65576;47.714;9.414;2022-12-07T02:46:17;96625.16;;;4.87
76657;BMP280;65576;47.714;9.414;2022-12-07T02:48:45;96630.19;;;4.97
76657;BMP280;65576;47.714;9.414;2022-12-07T02:51:11;96626.91;;;4.93
76657;BMP280;65576;47.714;9.414;2022-12-07T02:53:41;96626.84;;;5.00
76657;BMP280;65576;47.714;9.414;2022-12-07T02:56:20;96628.94;;;4.75
76657;BMP280;65576;47.714;9.414;2022-12-07T02:59:04;96630.69;;;4.85
76657;BMP280;65576;47.714;9.414;2022-12-07T03:09:53;96627.28;;;4.92
76657;BMP280;65576;47.714;9.414;2022-12-07T03:12:32;96628.44;;;4.87
76657;BMP280;65576;47.714;9.414;2022-12-07T03:15:05;96629.81;;;4.99
76657;BMP280;65576;47.714;9.414;2022-12-07T03:17:33;96631.28;;;4.96
76657;BMP280;65576;47.714;9.414;2022-12-07T03:20:04;96633.50;;;4.94
76657;BMP280;65576;47.714;9.414;2022-12-07T03:22:33;96625.34;;;5.03
76657;BMP280;65576;47.714;9.414;2022-12-07T03:25:04;96624.28;;;5.00
76657;BMP280;65576;47.714;9.414;2022-12-07T03:27:43;96630.25;;;4.90
76657;BMP280;65576;47.714;9.414;2022-12-07T03:30:20;96624.91;;;4.78
76657;BMP280;65576;47.714;9.414;2022-12-07T03:35:18;96625.38;;;4.99
76657;BMP280;65576;47.714;9.414;2022-12-07T03:37:53;96624.00;;;4.91
76657;BMP280;65576;47.714;9.414;2022-12-07T03:40:27;96627.44;;;5.11
76657;BMP280;65576;47.714;9.414;2022-12-07T03:42:54;96622.91;;;4.92
76657;BMP280;65576;47.714;9.414;2022-12-07T03:45:25;96623.09;;;5.05
76657;BMP280;65576;47.714;9.414;2022-12-07T03:48:05;96630.50;;;4.99
76657;BMP280;65576;47.714;9.414;2022-12-07T03:50:38;96621.19;;;4.82
76657;BMP280;65576;47.714;9.414;2022-12-07T03:53:11;96621.16;;;4.86
76657;BMP280;65576;47.714;9.414;2022-12-07T03:55:42;96610.84;;;4.89
76657;BMP280;65576;47.714;9.414;2022-12-07T03:58:12;96614.03;;;5.00
76657;BMP280;65576;47.714;9.414;2022-12-07T04:00:40;96614.72;;;5.01
76657;BMP280;65576;47.714;9.414;2022-12-07T04:03:06;96611.34;;;5.07
76657;BMP280;65576;47.714;9.414;2022-12-07T04:05:31;96615.09;;;5.03
76657;BMP280;65576;47.714;9.414;2022-12-07T04:07:57;96609.97;;;4.99
76657;BMP280;65576;47.714;9.414;2022-12-07T04:10:22;96613.91;;;5.07
76657;BMP280;65576;47.714;9.414;2022-12-07T04:12:47;96616.19;;;5.02
76657;BMP280;65576;47.714;9.414;2022-12-07T04:15:12;96614.25;;;5.09
76657;BMP280;65576;47.714;9.414;2022-12-07T04:17:38;96619.47;;;5.02
76657;BMP280;65576;47.714;9.414;2022-12-07T04:20:04;96619.03;;;5.07
76657;BMP280;65576;47.714;9.414;2022-12-07T04:22:30;96622.38;;;5.04
76657;BMP280;65576;47.714;9.414;2022-12-07T04:24:55;96622.03;;;5.02
76657;BMP280;65576;47.714;9.414;2022-12-07T04:27:20;96615.97;;;4.89
76657;BMP280;65576;47.714;9.414;2022-12-07T04:29:45;96619.59;;;4.92
76657;BMP280;65576;47.714;9.414;2022-12-07T04:32:11;96615.84;;;5.00
76657;BMP280;65576;47.714;9.414;2022-12-07T04:34:36;96621.00;;;4.96
76657;BMP280;65576;47.714;9.414;2022-12-07T04:37:01;96615.25;;;4.89
76657;BMP280;65576;47.714;9.414;2022-12-07T04:39:31;96622.00;;;4.76
76657;BMP280;65576;47.714;9.414;2022-12-07T04:41:57;96618.06;;;4.98
76657;BMP280;65576;47.714;9.414;2022-12-07T04:44:24;96620.13;;;5.10
76657;BMP280;65576;47.714;9.414;2022-12-07T04:46:51;96615.97;;;5.19
76657;BMP280;65576;47.714;9.414;2022-12-07T04:49:17;96617.88;;;5.12
76657;BMP280;65576;47.714;9.414;2022-12-07T04:51:42;96628.19;;;5.08
76657;BMP280;65576;47.714;9.414;2022-12-07T04:54:08;96623.78;;;5.09
76657;BMP280;65576;47.714;9.414;2022-12-07T04:56:34;96619.78;;;5.04
76657;BMP280;65576;47.714;9.414;2022-12-07T04:59:00;96620.91;;;5.03
76657;BMP280;65576;47.714;9.414;2022-12-07T05:01:26;96619.88;;;5.01
76657;BMP280;65576;47.714;9.414;2022-12-07T05:03:51;96617.00;;;4.95
76657;BMP280;65576;47.714;9.414;2022-12-07T05:06:17;96621.59;;;5.07
76657;BMP280;65576;47.714;9.414;2022-12-07T05:08:43;96623.00;;;5.12
76657;BMP280;65576;47.714;9.414;2022-12-07T05:11:09;96620.88;;;5.07
76657;BMP280;65576;47.714;9.414;2022-12-07T05:13:36;96621.59;;;5.07
76657;BMP280;65576;47.714;9.414;2022-12-07T05:16:01;96623.44;;;5.07
76657;BMP280;65576;47.714;9.414;2022-12-07T05:18:26;96620.16;;;5.06
76657;BMP280;65576;47.714;9.414;2022-12-07T05:20:52;96625.66;;;5.05
76657;BMP280;65576;47.714;9.414;2022-12-07T05:23:18;96617.72;;;4.96
76657;BMP280;65576;47.714;9.414;2022-12-07T05:25:43;96619.19;;;4.97
76657;BMP280;65576;47.714;9.414;2022-12-07T05:28:09;96619.47;;;5.02
76657;BMP280;65576;47.714;9.414;2022-12-07T05:30:34;96624.59;;;5.02
76657;BMP280;65576;47.714;9.414;2022-12-07T05:33:00;96622.53;;;4.94
76657;BMP280;65576;47.714;9.414;2022-12-07T05:35:25;96628.75;;;4.93
76657;BMP280;65576;47.714;9.414;2022-12-07T05:37:51;96623.59;;;4.93
76657;BMP280;65576;47.714;9.414;2022-12-07T05:40:16;96624.38;;;4.90
76657;BMP280;65576;47.714;9.414;2022-12-07T05:42:42;96622.13;;;4.95
76657;BMP280;65576;47.714;9.414;2022-12-07T05:45:09;96627.63;;;4.97
76657;BMP280;65576;47.714;9.414;2022-12-07T05:47:34;96627.22;;;4.99
76657;BMP280;65576;47.714;9.414;2022-12-07T05:50:00;96636.03;;;4.98
76657;BMP280;65576;47.714;9.414;2022-12-07T05:52:25;96627.31;;;4.88
76657;BMP280;65576;47.714;9.414;2022-12-07T05:54:51;96622.19;;;4.88
76657;BMP280;65576;47.714;9.414;2022-12-07T05:57:16;96627.28;;;4.95
76657;BMP280;65576;47.714;9.414;2022-12-07T05:59:41;96627.63;;;4.97
76657;BMP280;65576;47.714;9.414;2022-12-07T06:02:11;96624.72;;;4.92
76657;BMP280;65576;47.714;9.414;2022-12-07T06:04:39;96630.63;;;4.89
76657;BMP280;65576;47.714;9.414;2022-12-07T06:07:05;96635.50;;;4.80
76657;BMP280;65576;47.714;9.414;2022-12-07T06:09:31;96631.09;;;4.80
76657;BMP280;65576;47.714;9.414;2022-12-07T06:11:57;96628.53;;;4.80
76657;BMP280;65576;47.714;9.414;2022-12-07T06:14:41;96639.19;;;4.79
76657;BMP280;65576;47.714;9.414;2022-12-07T06:17:07;96638.16;;;4.69
76657;BMP280;65576;47.714;9.414;2022-12-07T06:19:33;96642.91;;;4.71
76657;BMP280;65576;47.714;9.414;2022-12-07T06:21:58;96641.47;;;4.70
76657;BMP280;65576;47.714;9.414;2022-12-07T06:24:23;96647.19;;;4.84
76657;BMP280;65576;47.714;9.414;2022-12-07T06:26:49;96645.44;;;4.78
76657;BMP280;65576;47.714;9.414;2022-12-07T06:29:17;96644.31;;;4.79
76657;BMP280;65576;47.714;9.414;2022-12-07T06:31:43;96648.75;;;4.75
76657;BMP280;65576;47.714;9.414;2022-12-07T06:34:11;96641.88;;;4.68
76657;BMP280;65576;47.714;9.414;2022-12-07T06:36:37;96649.88;;;4.70
76657;BMP280;65576;47.714;9.414;2022-12-07T06:39:02;96642.56;;;4.69
76657;BMP280;65576;47.714;9.414;2022-12-07T06:41:28;96647.41;;;4.63
76657;BMP280;65576;47.714;9.414;2022-12-07T06:43:53;96643.34;;;4.66
76657;BMP280;65576;47.714;9.414;2022-12-07T06:46:18;96642.28;;;4.63
76657;BMP280;65576;47.714;9.414;2022-12-07T06:48:44;96644.47;;;4.65
76657;BMP280;65576;47.714;9.414;2022-12-07T06:51:09;96653.25;;;4.64
76657;BMP280;65576;47.714;9.414;2022-12-07T06:53:35;96646.22;;;4.71
76657;BMP280;65576;47.714;9.414;2022-12-07T06:56:01;96647.00;;;4.68
76657;BMP280;65576;47.714;9.414;2022-12-07T06:58:27;96643.81;;;4.57
76657;BMP280;65576;47.714;9.414;2022-12-07T07:00:53;96642.69;;;4.58
76657;BMP280;65576;47.714;9.414;2022-12-07T07:03:18;96638.31;;;4.59
76657;BMP280;65576;47.714;9.414;2022-12-07T07:05:43;96642.69;;;4.58
76657;BMP280;65576;47.714;9.414;2022-12-07T07:08:10;96637.53;;;4.65
76657;BMP280;65576;47.714;9.414;2022-12-07T07:10:36;96641.19;;;4.61
76657;BMP280;65576;47.714;9.414;2022-12-07T07:13:02;96646.31;;;4.64
76657;BMP280;65576;47.714;9.414;2022-12-07T07:15:27;96646.09;;;4.48
76657;BMP280;65576;47.714;9.414;2022-12-07T07:17:52;96649.66;;;4.58
76657;BMP280;65576;47.714;9.414;2022-12-07T07:20:18;96652.03;;;4.75
76657;BMP280;65576;47.714;9.414;2022-12-07T07:22:43;96646.81;;;4.86
76657;BMP280;65576;47.714;9.414;2022-12-07T07:25:09;96654.22;;;4.77
76657;BMP280;65576;47.714;9.414;2022-12-07T07:27:34;96653.50;;;4.76
76657;BMP280;65576;47.714;9.414;2022-12-07T07:29:59;96657.53;;;4.74
76657;BMP280;65576;47.714;9.414;2022-12-07T07:32:25;96660.06;;;4.81
76657;BMP280;65576;47.714;9.414;2022-12-07T07:34:50;96659.28;;;4.84
76657;BMP280;65576;47.714;9.414;2022-12-07T07:37:15;96655.69;;;4.78
76657;BMP280;65576;47.714;9.414;2022-12-07T07:39:40;96658.97;;;4.78
76657;BMP280;65576;47.714;9.414;2022-12-07T07:42:06;96664.41;;;4.84
76657;BMP280;65576;47.714;9.414;2022-12-07T07:44:33;96662.47;;;4.91
76657;BMP280;65576;47.714;9.414;2022-12-07T07:46:58;96665.06;;;4.88
76657;BMP280;65576;47.714;9.414;2022-12-07T07:49:23;96664.28;;;4.94
76657;BMP280;65576;47.714;9.414;2022-12-07T07:51:48;96666.47;;;4.96
76657;BMP280;65576;47.714;9.414;2022-12-07T07:54:14;96663.63;;;4.87
76657;BMP280;65576;47.714;9.414;2022-12-07T07:56:39;96673.81;;;4.97
76657;BMP280;65576;47.714;9.414;2022-12-07T07:59:04;96670.84;;;4.99
76657;BMP280;65576;47.714;9.414;2022-12-07T08:01:30;96671.59;;;4.96
76657;BMP280;65576;47.714;9.414;2022-12-07T08:03:55;96673.75;;;5.01
76657;BMP280;65576;47.714;9.414;2022-12-07T08:06:20;96667.97;;;4.93
76657;BMP280;65576;47.714;9.414;2022-12-07T08:08:45;96666.81;;;4.98
76657;BMP280;65576;47.714;9.414;2022-12-07T08:11:11;96676.19;;;5.11
76657;BMP280;65576;47.714;9.414;2022-12-07T08:13:36;96668.06;;;5.16
76657;BMP280;65576;47.714;9.414;2022-12-07T08:16:06;96668.00;;;5.20
76657;BMP280;65576;47.714;9.414;2022-12-07T08:18:37;96666.91;;;5.21
76657;BMP280;65576;47.714;9.414;2022-12-07T08:21:04;96671.25;;;5.24
76657;BMP280;65576;47.714;9.414;2022-12-07T08:23:30;96668.66;;;5.27
76657;BMP280;65576;47.714;9.414;2022-12-07T08:26:00;96676.72;;;5.29
76657;BMP280;65576;47.714;9.414;2022-12-07T08:28:25;96670.53;;;5.23
76657;BMP280;65576;47.714;9.414;2022-12-07T08:30:50;96683.66;;;5.29
76657;BMP280;65576;47.714;9.414;2022-12-07T08:33:15;96681.13;;;5.25
76657;BMP280;65576;47.714;9.414;2022-12-07T08:35:41;96680.84;;;5.20
76657;BMP280;65576;47.714;9.414;2022-12-07T08:38:06;96675.66;;;5.23
76657;BMP280;65576;47.714;9.414;2022-12-07T08:40:31;96682.19;;;5.28
76657;BMP280;65576;47.714;9.414;2022-12-07T08:42:57;96685.28;;;5.19
76657;BMP280;65576;47.714;9.414;2022-12-07T08:45:22;96680.41;;;5.25
76657;BMP280;65576;47.714;9.414;2022-12-07T08:47:52;96682.88;;;5.35
76657;BMP280;65576;47.714;9.414;2022-12-07T08:50:19;96684.41;;;5.29
76657;BMP280;65576;47.714;9.414;2022-12-07T08:52:48;96683.69;;;5.25
76657;BMP280;65576;47.714;9.414;2022-12-07T08:55:13;96684.69;;;5.35
76657;BMP280;65576;47.714;9.414;2022-12-07T08:57:39;96684.75;;;5.31
76657;BMP280;65576;47.714;9.414;2022-12-07T09:00:05;96684.75;;;5.31
76657;BMP280;65576;47.714;9.414;2022-12-07T09:02:31;96689.78;;;5.38
76657;BMP280;65576;47.714;9.414;2022-12-07T09:04:57;96687.16;;;5.42
76657;BMP280;65576;47.714;9.414;2022-12-07T09:07:22;96692.28;;;5.46
76657;BMP280;65576;47.714;9.414;2022-12-07T09:09:48;96693.38;;;5.44
76657;BMP280;65576;47.714;9.414;2022-12-07T09:12:13;96691.50;;;5.49
76657;BMP280;65576;47.714;9.414;2022-12-07T09:14:38;96694.09;;;5.45
76657;BMP280;65576;47.714;9.414;2022-12-07T09:17:12;96698.47;;;5.48
76657;BMP280;65576;47.714;9.414;2022-12-07T09:19:38;96695.97;;;5.41
76657;BMP280;65576;47.714;9.414;2022-12-07T09:22:04;96698.13;;;5.46
76657;BMP280;65576;47.714;9.414;2022-12-07T09:24:30;96691.53;;;5.45
76657;BMP280;65576;47.714;9.414;2022-12-07T09:26:56;96703.22;;;5.50
76657;BMP280;65576;47.714;9.414;2022-12-07T09:29:22;96702.47;;;5.49
76657;BMP280;65576;47.714;9.414;2022-12-07T09:31:47;96703.94;;;5.50
76657;BMP280;65576;47.714;9.414;2022-12-07T09:34:12;96712.06;;;5.45
76657;BMP280;65576;47.714;9.414;2022-12-07T09:36:38;96704.25;;;5.52
76657;BMP280;65576;47.714;9.414;2022-12-07T09:39:03;96700.97;;;5.52
76657;BMP280;65576;47.714;9.414;2022-12-07T09:41:31;96699.81;;;5.56
76657;BMP280;65576;47.714;9.414;2022-12-07T09:44:09;96698.31;;;5.59
76657;BMP280;65576;47.714;9.414;2022-12-07T09:46:40;96695.66;;;5.66
76657;BMP280;65576;47.714;9.414;2022-12-07T09:49:11;96692.69;;;5.67
76657;BMP280;65576;47.714;9.414;2022-12-07T09:51:37;96687.16;;;5.69
76657;BMP280;65576;47.714;9.414;2022-12-07T09:54:03;96690.06;;;5.71
76657;BMP280;65576;47.714;9.414;2022-12-07T09:56:29;96686.50;;;5.65
76657;BMP280;65576;47.714;9.414;2022-12-07T09:59:00;96679.22;;;5.60
76657;BMP280;65576;47.714;9.414;2022-12-07T10:01:30;96684.25;;;5.67
76657;BMP280;65576;47.714;9.414;2022-12-07T10:04:12;96675.69;;;5.77
76657;BMP280;65576;47.714;9.414;2022-12-07T10:06:39;96677.16;;;5.78
76657;BMP280;65576;47.714;9.414;2022-12-07T10:09:15;96671.66;;;5.76
76657;BMP280;65576;47.714;9.414;2022-12-07T10:14:27;96658.13;;;5.72
76657;BMP280;65576;47.714;9.414;2022-12-07T10:16:53;96655.91;;;5.74
76657;BMP280;65576;47.714;9.414;2022-12-07T10:22:14;96654.97;;;5.87
76657;BMP280;65576;47.714;9.414;2022-12-07T10:24:42;96654.63;;;5.85
76657;BMP280;65576;47.714;9.414;2022-12-07T10:27:30;96643.25;;;5.83
76657;BMP280;65576;47.714;9.414;2022-12-07T10:29:57;96646.13;;;5.88
76657;BMP280;65576;47.714;9.414;2022-12-07T10:32:34;96644.69;;;5.87
76657;BMP280;65576;47.714;9.414;2022-12-07T10:35:20;96639.72;;;6.00
76657;BMP280;65576;47.714;9.414;2022-12-07T10:37:47;96641.31;;;5.94
76657;BMP280;65576;47.714;9.414;2022-12-07T10:48:59;96630.31;;;5.90
76657;BMP280;65576;47.714;9.414;2022-12-07T10:54:59;96621.22;;;6.08
76657;BMP280;65576;47.714;9.414;2022-12-07T10:57:35;96620.94;;;6.03
76657;BMP280;65576;47.714;9.414;2022-12-07T11:03:23;96607.44;;;5.76
76657;BMP280;65576;47.714;9.414;2022-12-07T11:05:56;96614.56;;;5.88
76657;BMP280;65576;47.714;9.414;2022-12-07T11:08:39;96606.41;;;5.93
76657;BMP280;65576;47.714;9.414;2022-12-07T11:11:14;96607.41;;;5.99
76657;BMP280;65576;47.714;9.414;2022-12-07T11:13:53;96597.41;;;6.04
76657;BMP280;65576;47.714;9.414;2022-12-07T11:16:28;96597.84;;;5.99
76657;BMP280;65576;47.714;9.414;2022-12-07T11:21:48;96594.66;;;5.95
76657;BMP280;65576;47.714;9.414;2022-12-07T11:24:25;96600.28;;;5.87
76657;BMP280;65576;47.714;9.414;2022-12-07T11:27:10;96591.00;;;5.93
76657;BMP280;65576;47.714;9.414;2022-12-07T11:30:14;96585.09;;;5.96
76657;BMP280;65576;47.714;9.414;2022-12-07T11:32:49;96592.78;;;5.96
76657;BMP280;65576;47.714;9.414;2022-12-07T11:37:56;96576.31;;;5.93
76657;BMP280;65576;47.714;9.414;2022-12-07T11:40:29;96581.81;;;5.95
76657;BMP280;65576;47.714;9.414;2022-12-07T11:43:09;96581.06;;;5.95
76657;BMP280;65576;47.714;9.414;2022-12-07T11:45:39;96575.59;;;5.93
76657;BMP280;65576;47.714;9.414;2022-12-07T11:48:14;96579.53;;;5.78
76657;BMP280;65576;47.714;9.414;2022-12-07T11:50:48;96567.00;;;5.80
76657;BMP280;65576;47.714;9.414;2022-12-07T11:53:26;96574.97;;;5.85
76657;BMP280;65576;47.714;9.414;2022-12-07T11:55:57;96569.41;;;5.90
76657;BMP280;65576;47.714;9.414;2022-12-07T12:01:26;96569.78;;;5.89
76657;BMP280;65576;47.714;9.414;2022-12-07T12:06:34;96554.94;;;5.96
76657;BMP280;65576;47.714;9.414;2022-12-07T12:14:42;96551.97;;;5.78
76657;BMP280;65576;47.714;9.414;2022-12-07T12:22:40;96535.38;;;6.02
76657;BMP280;65576;47.714;9.414;2022-12-07T12:25:20;96532.03;;;6.05
76657;BMP280;65576;47.714;9.414;2022-12-07T12:27:48;96535.13;;;5.97
76657;BMP280;65576;47.714;9.414;2022-12-07T12:30:43;96525.50;;;5.81
76657;BMP280;65576;47.714;9.414;2022-12-07T12:33:27;96528.06;;;5.81
76657;BMP280;65576;47.714;9.414;2022-12-07T12:47:00;96524.38;;;5.82
76657;BMP280;65576;47.714;9.414;2022-12-07T12:49:33;96520.63;;;5.87
76657;BMP280;65576;47.714;9.414;2022-12-07T12:54:58;96530.72;;;5.78
76657;BMP280;65576;47.714;9.414;2022-12-07T12:57:33;96532.03;;;5.86
76657;BMP280;65576;47.714;9.414;2022-12-07T13:00:00;96528.94;;;5.94
76657;BMP280;65576;47.714;9.414;2022-12-07T13:02:30;96518.47;;;6.05
76657;BMP280;65576;47.714;9.414;2022-12-07T13:15:51;96504.34;;;6.13
76657;BMP280;65576;47.714;9.414;2022-12-07T13:23:36;96501.16;;;6.25
76657;BMP280;65576;47.714;9.414;2022-12-07T13:31:38;96500.25;;;6.15
76657;BMP280;65576;47.714;9.414;2022-12-07T13:34:26;96498.16;;;6.10
76657;BMP280;65576;47.714;9.414;2022-12-07T13:36:50;96485.06;;;6.05
76657;BMP280;65576;47.714;9.414;2022-12-07T13:39:25;96487.88;;;6.10
76657;BMP280;65576;47.714;9.414;2022-12-07T13:42:08;96490.31;;;6.17
76657;BMP280;65576;47.714;9.414;2022-12-07T13:44:40;96485.91;;;6.18
76657;BMP280;65576;47.714;9.414;2022-12-07T13:49:54;96480.78;;;6.18
76657;BMP280;65576;47.714;9.414;2022-12-07T13:52:30;96479.63;;;6.19
76657;BMP280;65576;47.714;9.414;2022-12-07T13:54:57;96477.72;;;6.23
76657;BMP280;65576;47.714;9.414;2022-12-07T13:57:25;96481.47;;;6.18
76657;BMP280;65576;47.714;9.414;2022-12-07T13:59:51;96478.84;;;6.22
76657;BMP280;65576;47.714;9.414;2022-12-07T14:02:29;96468.63;;;6.18
76657;BMP280;65576;47.714;9.414;2022-12-07T14:05:15;96471.78;;;6.26
76657;BMP280;65576;47.714;9.414;2022-12-07T14:07:59;96477.72;;;6.23
76657;BMP280;65576;47.714;9.414;2022-12-07T14:10:27;96481.53;;;6.15
76657;BMP280;65576;47.714;9.414;2022-12-07T14:12:53;96483.16;;;6.25
76657;BMP280;65576;47.714;9.414;2022-12-07T14:15:25;96479.59;;;6.22
76657;BMP280;65576;47.714;9.414;2022-12-07T14:17:54;96478.75;;;6.09
76657;BMP280;65576;47.714;9.414;2022-12-07T14:22:58;96478.41;;;6.07
76657;BMP280;65576;47.714;9.414;2022-12-07T14:25:25;96484.38;;;6.01
76657;BMP280;65576;47.714;9.414;2022-12-07T14:27:57;96473.91;;;6.11
76657;BMP280;65576;47.714;9.414;2022-12-07T14:30:30;96468.38;;;6.13
76657;BMP280;65576;47.714;9.414;2022-12-07T14:32:59;96471.03;;;6.09
76657;BMP280;65576;47.714;9.414;2022-12-07T14:35:25;96469.63;;;6.05
76657;BMP280;65576;47.714;9.414;2022-12-07T14:37:51;96476.28;;;6.02
76657;BMP280;65576;47.714;9.414;2022-12-07T14:40:22;96469.03;;;5.97
76657;BMP280;65576;47.714;9.414;2022-12-07T14:42:51;96474.09;;;6.01
76657;BMP280;65576;47.714;9.414;2022-12-07T14:45:20;96465.59;;;6.04
76657;BMP280;65576;47.714;9.414;2022-12-07T14:47:46;96471.72;;;6.10
76657;BMP280;65576;47.714;9.414;2022-12-07T14:50:16;96462.38;;;6.00
76657;BMP280;65576;47.714;9.414;2022-12-07T14:52:56;96461.31;;;5.97
76657;BMP280;65576;47.714;9.414;2022-12-07T14:55:28;96467.56;;;5.96
76657;BMP280;65576;47.714;9.414;2022-12-07T14:57:54;96471.19;;;5.99
76657;BMP280;65576;47.714;9.414;2022-12-07T15:00:20;96466.88;;;5.96
76657;BMP280;65576;47.714;9.414;2022-12-07T15:02:47;96468.09;;;5.88
76657;BMP280;65576;47.714;9.414;2022-12-07T15:05:13;96468.97;;;5.81
76657;BMP280;65576;47.714;9.414;2022-12-07T15:07:39;96461.66;;;5.80
76657;BMP280;65576;47.714;9.414;2022-12-07T15:10:06;96468.66;;;5.79
76657;BMP280;65576;47.714;9.414;2022-12-07T15:12:31;96467.84;;;5.82
76657;BMP280;65576;47.714;9.414;2022-12-07T15:14:57;96470.72;;;5.84
76657;BMP280;65576;47.714;9.414;2022-12-07T15:17:22;96467.19;;;5.78
76657;BMP280;65576;47.714;9.414;2022-12-07T15:19:47;96466.00;;;5.83
76657;BMP280;65576;47.714;9.414;2022-12-07T15:22:13;96461.59;;;5.83
76657;BMP280;65576;47.714;9.414;2022-12-07T15:24:38;96456.84;;;5.82
76657;BMP280;65576;47.714;9.414;2022-12-07T15:27:03;96463.19;;;5.77
76657;BMP280;65576;47.714;9.414;2022-12-07T15:29:29;96455.81;;;5.79
76657;BMP280;65576;47.714;9.414;2022-12-07T15:31:54;96460.09;;;5.86
76657;BMP280;65576;47.714;9.414;2022-12-07T15:34:20;96456.34;;;5.90
76657;BMP280;65576;47.714;9.414;2022-12-07T15:36:45;96451.59;;;5.89
76657;BMP280;65576;47.714;9.414;2022-12-07T15:39:10;96456.78;;;5.85
76657;BMP280;65576;47.714;9.414;2022-12-07T15:41:36;96461.34;;;5.78
76657;BMP280;65576;47.714;9.414;2022-12-07T15:44:01;96459.53;;;5.75
76657;BMP280;65576;47.714;9.414;2022-12-07T15:46:45;96451.38;;;5.60
76657;BMP280;65576;47.714;9.414;2022-12-07T15:49:15;96453.81;;;5.67
76657;BMP280;65576;47.714;9.414;2022-12-07T15:51:42;96449.22;;;5.78
76657;BMP280;65576;47.714;9.414;2022-12-07T15:54:11;96456.97;;;5.75
76657;BMP280;65576;47.714;9.414;2022-12-07T15:56:37;96456.25;;;5.74
76657;BMP280;65576;47.714;9.414;2022-12-07T15:59:02;96452.22;;;5.54
76657;BMP280;65576;47.714;9.414;2022-12-07T16:01:28;96456.03;;;5.46
76657;BMP280;65576;47.714;9.414;2022-12-07T16:03:53;96454.53;;;5.48
76657;BMP280;65576;47.714;9.414;2022-12-07T16:06:19;96455.69;;;5.43
76657;BMP280;65576;47.714;9.414;2022-12-07T16:08:45;96449.88;;;5.39
76657;BMP280;65576;47.714;9.414;2022-12-07T16:11:12;96450.19;;;5.45